sensor_id;sensor_type;location;lat;lon;timestamp;temperature;humidity
9448;DHT22;4762;48.128;11.376;2024-03-29T00:00:44;4.00;74.50
9448;DHT22;4762;48.128;11.376;2024-03-29T00:07:36;4.10;75.10
9448;DHT22;4762;48.128;11.376;2024-03-29T00:09:38;3.90;75.00
9448;DHT22;4762;48.128;11.376;2024-03-29T00:11:40;3.80;74.90
9448;DHT22;4762;48.128;11.376;2024-03-29T00:13:43;4.00;74.20
9448;DHT22;4762;48.128;11.376;2024-03-29T00:15:46;3.90;73.30
9448;DHT22;4762;48.128;11.376;2024-03-29T00:17:48;4.00;73.60
9448;DHT22;4762;48.128;11.376;2024-03-29T00:19:50;4.10;73.50
9448;DHT22;4762;48.128;11.376;2024-03-29T00:21:52;4.20;73.40
9448;DHT22;4762;48.128;11.376;2024-03-29T00:23:54;3.90;73.60
9448;DHT22;4762;48.128;11.376;2024-03-29T00:25:57;4.00;73.70
9448;DHT22;4762;48.128;11.376;2024-03-29T00:28:00;4.20;73.40
9448;DHT22;4762;48.128;11.376;2024-03-29T00:30:02;4.00;73.50
9448;DHT22;4762;48.128;11.376;2024-03-29T00:32:05;4.20;73.50
9448;DHT22;4762;48.128;11.376;2024-03-29T00:34:07;4.10;73.60
9448;DHT22;4762;48.128;11.376;2024-03-29T00:36:09;3.90;74.30
9448;DHT22;4762;48.128;11.376;2024-03-29T00:38:11;3.80;74.60
9448;DHT22;4762;48.128;11.376;2024-03-29T00:40:14;4.00;74.00
9448;DHT22;4762;48.128;11.376;2024-03-29T00:42:16;3.70;74.40
9448;DHT22;4762;48.128;11.376;2024-03-29T00:44:19;3.90;75.10
9448;DHT22;4762;48.128;11.376;2024-03-29T00:46:21;3.80;74.30
9448;DHT22;4762;48.128;11.376;2024-03-29T00:48:23;3.70;75.10
9448;DHT22;4762;48.128;11.376;2024-03-29T00:50:25;3.80;74.40
9448;DHT22;4762;48.128;11.376;2024-03-29T00:52:28;3.80;75.80
9448;DHT22;4762;48.128;11.376;2024-03-29T00:54:30;3.30;76.10
9448;DHT22;4762;48.128;11.376;2024-03-29T00:56:32;3.50;75.80
9448;DHT22;4762;48.128;11.376;2024-03-29T00:58:34;3.50;75.80
9448;DHT22;4762;48.128;11.376;2024-03-29T01:00:37;3.50;75.90
9448;DHT22;4762;48.128;11.376;2024-03-29T01:02:39;3.20;76.10
9448;DHT22;4762;48.128;11.376;2024-03-29T01:04:41;2.90;77.50
9448;DHT22;4762;48.128;11.376;2024-03-29T01:06:44;3.20;77.70
9448;DHT22;4762;48.128;11.376;2024-03-29T01:08:46;2.80;78.10
9448;DHT22;4762;48.128;11.376;2024-03-29T01:10:48;2.70;78.60
9448;DHT22;4762;48.128;11.376;2024-03-29T01:12:50;2.60;78.70
9448;DHT22;4762;48.128;11.376;2024-03-29T01:14:52;2.80;78.40
9448;DHT22;4762;48.128;11.376;2024-03-29T01:16:55;2.60;78.70
9448;DHT22;4762;48.128;11.376;2024-03-29T01:18:58;2.90;78.10
9448;DHT22;4762;48.128;11.376;2024-03-29T01:21:00;3.00;78.00
9448;DHT22;4762;48.128;11.376;2024-03-29T01:23:03;3.10;76.60
9448;DHT22;4762;48.128;11.376;2024-03-29T01:25:05;3.00;76.90
9448;DHT22;4762;48.128;11.376;2024-03-29T01:27:08;3.20;76.20
9448;DHT22;4762;48.128;11.376;2024-03-29T01:29:10;3.00;76.90
9448;DHT22;4762;48.128;11.376;2024-03-29T01:31:13;2.80;77.60
9448;DHT22;4762;48.128;11.376;2024-03-29T01:33:16;2.90;77.40
9448;DHT22;4762;48.128;11.376;2024-03-29T01:35:18;2.70;77.90
9448;DHT22;4762;48.128;11.376;2024-03-29T01:37:20;2.80;77.70
9448;DHT22;4762;48.128;11.376;2024-03-29T01:39:23;2.70;78.10
9448;DHT22;4762;48.128;11.376;2024-03-29T01:41:25;2.80;78.10
9448;DHT22;4762;48.128;11.376;2024-03-29T01:43:28;2.80;77.90
9448;DHT22;4762;48.128;11.376;2024-03-29T01:45:31;2.70;77.90
9448;DHT22;4762;48.128;11.376;2024-03-29T01:47:33;2.70;78.00
9448;DHT22;4762;48.128;11.376;2024-03-29T01:49:35;2.70;78.40
9448;DHT22;4762;48.128;11.376;2024-03-29T01:51:37;2.40;78.90
9448;DHT22;4762;48.128;11.376;2024-03-29T01:53:40;2.30;79.40
9448;DHT22;4762;48.128;11.376;2024-03-29T01:55:42;2.10;80.40
9448;DHT22;4762;48.128;11.376;2024-03-29T01:57:45;1.90;80.70
9448;DHT22;4762;48.128;11.376;2024-03-29T01:59:47;1.90;80.70
9448;DHT22;4762;48.128;11.376;2024-03-29T02:01:49;1.90;81.60
9448;DHT22;4762;48.128;11.376;2024-03-29T02:03:52;1.70;82.30
9448;DHT22;4762;48.128;11.376;2024-03-29T02:05:54;1.50;82.10
9448;DHT22;4762;48.128;11.376;2024-03-29T02:07:56;1.70;82.10
9448;DHT22;4762;48.128;11.376;2024-03-29T02:09:58;1.60;82.40
9448;DHT22;4762;48.128;11.376;2024-03-29T02:12:01;1.90;82.50
9448;DHT22;4762;48.128;11.376;2024-03-29T02:14:03;1.80;82.70
9448;DHT22;4762;48.128;11.376;2024-03-29T02:16:06;1.60;82.60
9448;DHT22;4762;48.128;11.376;2024-03-29T02:18:08;1.70;82.70
9448;DHT22;4762;48.128;11.376;2024-03-29T02:20:10;1.70;83.00
9448;DHT22;4762;48.128;11.376;2024-03-29T02:22:14;1.40;83.20
9448;DHT22;4762;48.128;11.376;2024-03-29T02:24:16;1.60;83.20
9448;DHT22;4762;48.128;11.376;2024-03-29T02:26:32;1.60;83.30
9448;DHT22;4762;48.128;11.376;2024-03-29T02:28:50;1.30;83.60
9448;DHT22;4762;48.128;11.376;2024-03-29T02:30:52;1.50;83.70
9448;DHT22;4762;48.128;11.376;2024-03-29T02:32:54;1.30;84.10
9448;DHT22;4762;48.128;11.376;2024-03-29T02:34:56;1.10;84.40
9448;DHT22;4762;48.128;11.376;2024-03-29T02:36:59;1.00;84.90
9448;DHT22;4762;48.128;11.376;2024-03-29T02:39:01;1.10;85.60
9448;DHT22;4762;48.128;11.376;2024-03-29T02:41:03;1.20;85.60
9448;DHT22;4762;48.128;11.376;2024-03-29T02:43:05;1.00;85.80
9448;DHT22;4762;48.128;11.376;2024-03-29T02:45:08;1.00;85.90
9448;DHT22;4762;48.128;11.376;2024-03-29T02:47:10;1.00;85.50
9448;DHT22;4762;48.128;11.376;2024-03-29T02:49:13;1.00;85.40
9448;DHT22;4762;48.128;11.376;2024-03-29T02:51:15;0.70;85.40
9448;DHT22;4762;48.128;11.376;2024-03-29T02:53:17;0.80;85.50
9448;DHT22;4762;48.128;11.376;2024-03-29T02:55:19;0.80;85.60
9448;DHT22;4762;48.128;11.376;2024-03-29T02:57:22;0.70;85.70
9448;DHT22;4762;48.128;11.376;2024-03-29T02:59:24;0.80;85.60
9448;DHT22;4762;48.128;11.376;2024-03-29T03:01:27;0.70;85.90
9448;DHT22;4762;48.128;11.376;2024-03-29T03:03:29;0.70;86.20
9448;DHT22;4762;48.128;11.376;2024-03-29T03:05:31;0.50;86.40
9448;DHT22;4762;48.128;11.376;2024-03-29T03:07:34;0.80;86.80
9448;DHT22;4762;48.128;11.376;2024-03-29T03:09:42;0.80;86.40
9448;DHT22;4762;48.128;11.376;2024-03-29T03:12:02;1.10;85.80
9448;DHT22;4762;48.128;11.376;2024-03-29T03:14:04;1.00;85.50
9448;DHT22;4762;48.128;11.376;2024-03-29T03:16:06;1.00;85.30
9448;DHT22;4762;48.128;11.376;2024-03-29T03:18:08;1.10;85.30
9448;DHT22;4762;48.128;11.376;2024-03-29T03:20:11;1.40;85.10
9448;DHT22;4762;48.128;11.376;2024-03-29T03:22:13;1.60;84.00
9448;DHT22;4762;48.128;11.376;2024-03-29T03:24:15;1.60;83.30
9448;DHT22;4762;48.128;11.376;2024-03-29T03:26:17;2.00;82.40
9448;DHT22;4762;48.128;11.376;2024-03-29T03:28:19;1.90;82.00
9448;DHT22;4762;48.128;11.376;2024-03-29T03:30:22;1.90;82.20
9448;DHT22;4762;48.128;11.376;2024-03-29T03:32:24;1.90;81.90
9448;DHT22;4762;48.128;11.376;2024-03-29T03:34:26;2.10;81.40
9448;DHT22;4762;48.128;11.376;2024-03-29T03:36:28;2.10;81.40
9448;DHT22;4762;48.128;11.376;2024-03-29T03:38:31;2.10;81.30
9448;DHT22;4762;48.128;11.376;2024-03-29T03:40:33;2.10;81.30
9448;DHT22;4762;48.128;11.376;2024-03-29T03:42:35;2.00;81.40
9448;DHT22;4762;48.128;11.376;2024-03-29T03:44:37;2.40;81.10
9448;DHT22;4762;48.128;11.376;2024-03-29T03:46:39;2.40;81.00
9448;DHT22;4762;48.128;11.376;2024-03-29T03:48:41;2.20;80.90
9448;DHT22;4762;48.128;11.376;2024-03-29T03:50:44;2.30;81.00
9448;DHT22;4762;48.128;11.376;2024-03-29T03:52:46;2.10;81.20
9448;DHT22;4762;48.128;11.376;2024-03-29T03:54:48;2.00;81.40
9448;DHT22;4762;48.128;11.376;2024-03-29T03:56:50;2.20;81.00
9448;DHT22;4762;48.128;11.376;2024-03-29T03:58:53;2.10;81.00
9448;DHT22;4762;48.128;11.376;2024-03-29T04:00:55;2.10;81.00
9448;DHT22;4762;48.128;11.376;2024-03-29T04:02:57;2.40;80.50
9448;DHT22;4762;48.128;11.376;2024-03-29T04:04:59;2.30;80.40
9448;DHT22;4762;48.128;11.376;2024-03-29T04:07:01;2.10;80.80
9448;DHT22;4762;48.128;11.376;2024-03-29T04:09:04;2.20;80.60
9448;DHT22;4762;48.128;11.376;2024-03-29T04:11:06;2.30;79.90
9448;DHT22;4762;48.128;11.376;2024-03-29T04:13:08;2.20;80.00
9448;DHT22;4762;48.128;11.376;2024-03-29T04:15:10;2.50;79.80
9448;DHT22;4762;48.128;11.376;2024-03-29T04:17:13;2.50;79.40
9448;DHT22;4762;48.128;11.376;2024-03-29T04:19:15;2.80;78.60
9448;DHT22;4762;48.128;11.376;2024-03-29T04:21:17;3.20;77.10
9448;DHT22;4762;48.128;11.376;2024-03-29T04:23:19;3.10;76.30
9448;DHT22;4762;48.128;11.376;2024-03-29T04:25:21;3.20;76.30
9448;DHT22;4762;48.128;11.376;2024-03-29T04:27:24;3.40;76.20
9448;DHT22;4762;48.128;11.376;2024-03-29T04:29:26;3.40;75.80
9448;DHT22;4762;48.128;11.376;2024-03-29T04:31:28;3.30;75.90
9448;DHT22;4762;48.128;11.376;2024-03-29T04:33:30;3.30;76.50
9448;DHT22;4762;48.128;11.376;2024-03-29T04:35:32;3.10;77.00
9448;DHT22;4762;48.128;11.376;2024-03-29T04:37:35;3.10;76.40
9448;DHT22;4762;48.128;11.376;2024-03-29T04:39:37;3.20;76.70
9448;DHT22;4762;48.128;11.376;2024-03-29T04:41:39;2.90;77.40
9448;DHT22;4762;48.128;11.376;2024-03-29T04:43:42;3.00;77.90
9448;DHT22;4762;48.128;11.376;2024-03-29T04:45:44;2.80;78.80
9448;DHT22;4762;48.128;11.376;2024-03-29T04:47:46;2.60;79.10
9448;DHT22;4762;48.128;11.376;2024-03-29T04:49:49;2.30;79.70
9448;DHT22;4762;48.128;11.376;2024-03-29T04:51:51;2.40;80.30
9448;DHT22;4762;48.128;11.376;2024-03-29T04:53:54;2.40;80.10
9448;DHT22;4762;48.128;11.376;2024-03-29T04:55:56;2.40;80.10
9448;DHT22;4762;48.128;11.376;2024-03-29T04:57:58;2.50;80.20
9448;DHT22;4762;48.128;11.376;2024-03-29T05:00:00;2.40;80.10
9448;DHT22;4762;48.128;11.376;2024-03-29T05:02:03;2.50;80.10
9448;DHT22;4762;48.128;11.376;2024-03-29T05:04:05;2.70;79.60
9448;DHT22;4762;48.128;11.376;2024-03-29T05:06:07;2.70;79.40
9448;DHT22;4762;48.128;11.376;2024-03-29T05:08:09;2.60;79.30
9448;DHT22;4762;48.128;11.376;2024-03-29T05:10:11;2.70;79.20
9448;DHT22;4762;48.128;11.376;2024-03-29T05:12:14;2.90;79.10
9448;DHT22;4762;48.128;11.376;2024-03-29T05:14:16;2.90;79.00
9448;DHT22;4762;48.128;11.376;2024-03-29T05:16:20;3.10;78.80
9448;DHT22;4762;48.128;11.376;2024-03-29T05:18:22;3.10;78.10
9448;DHT22;4762;48.128;11.376;2024-03-29T05:20:24;3.20;77.40
9448;DHT22;4762;48.128;11.376;2024-03-29T05:22:26;3.40;77.10
9448;DHT22;4762;48.128;11.376;2024-03-29T05:24:28;3.70;76.50
9448;DHT22;4762;48.128;11.376;2024-03-29T05:26:31;3.70;75.70
9448;DHT22;4762;48.128;11.376;2024-03-29T05:28:33;3.90;75.30
9448;DHT22;4762;48.128;11.376;2024-03-29T05:30:35;3.90;74.50
9448;DHT22;4762;48.128;11.376;2024-03-29T05:32:37;4.00;74.00
9448;DHT22;4762;48.128;11.376;2024-03-29T05:34:40;4.20;73.40
9448;DHT22;4762;48.128;11.376;2024-03-29T05:36:42;4.10;72.40
9448;DHT22;4762;48.128;11.376;2024-03-29T05:38:44;4.40;72.20
9448;DHT22;4762;48.128;11.376;2024-03-29T05:40:46;4.50;72.30
9448;DHT22;4762;48.128;11.376;2024-03-29T05:42:48;4.50;71.70
9448;DHT22;4762;48.128;11.376;2024-03-29T05:44:51;4.60;71.10
9448;DHT22;4762;48.128;11.376;2024-03-29T05:46:53;4.70;71.60
9448;DHT22;4762;48.128;11.376;2024-03-29T05:48:55;4.70;70.70
9448;DHT22;4762;48.128;11.376;2024-03-29T05:50:57;4.80;70.90
9448;DHT22;4762;48.128;11.376;2024-03-29T05:53:00;4.90;70.00
9448;DHT22;4762;48.128;11.376;2024-03-29T05:55:02;5.00;70.00
9448;DHT22;4762;48.128;11.376;2024-03-29T05:57:04;4.90;69.40
9448;DHT22;4762;48.128;11.376;2024-03-29T05:59:06;5.40;68.10
9448;DHT22;4762;48.128;11.376;2024-03-29T06:01:09;5.40;67.80
9448;DHT22;4762;48.128;11.376;2024-03-29T06:03:11;5.50;67.10
9448;DHT22;4762;48.128;11.376;2024-03-29T06:05:13;5.50;67.70
9448;DHT22;4762;48.128;11.376;2024-03-29T06:07:15;5.90;67.60
9448;DHT22;4762;48.128;11.376;2024-03-29T06:09:17;6.00;65.90
9448;DHT22;4762;48.128;11.376;2024-03-29T06:11:19;6.10;66.00
9448;DHT22;4762;48.128;11.376;2024-03-29T06:13:22;6.50;65.70
9448;DHT22;4762;48.128;11.376;2024-03-29T06:17:54;7.60;62.10
9448;DHT22;4762;48.128;11.376;2024-03-29T06:19:56;8.00;61.00
9448;DHT22;4762;48.128;11.376;2024-03-29T06:21:58;8.00;61.90
9448;DHT22;4762;48.128;11.376;2024-03-29T06:24:00;8.10;61.00
9448;DHT22;4762;48.128;11.376;2024-03-29T06:26:03;8.10;60.70
9448;DHT22;4762;48.128;11.376;2024-03-29T06:28:05;8.20;60.00
9448;DHT22;4762;48.128;11.376;2024-03-29T06:30:07;8.20;60.50
9448;DHT22;4762;48.128;11.376;2024-03-29T06:32:10;8.40;59.40
9448;DHT22;4762;48.128;11.376;2024-03-29T06:34:13;8.40;58.70
9448;DHT22;4762;48.128;11.376;2024-03-29T06:36:15;8.80;58.50
9448;DHT22;4762;48.128;11.376;2024-03-29T06:38:17;9.00;56.80
9448;DHT22;4762;48.128;11.376;2024-03-29T06:40:19;8.80;56.30
9448;DHT22;4762;48.128;11.376;2024-03-29T06:42:22;9.10;58.80
9448;DHT22;4762;48.128;11.376;2024-03-29T06:44:24;9.70;55.70
9448;DHT22;4762;48.128;11.376;2024-03-29T06:46:26;9.60;55.00
9448;DHT22;4762;48.128;11.376;2024-03-29T06:48:28;10.00;55.20
9448;DHT22;4762;48.128;11.376;2024-03-29T06:50:30;10.40;53.50
9448;DHT22;4762;48.128;11.376;2024-03-29T06:52:33;10.80;53.30
9448;DHT22;4762;48.128;11.376;2024-03-29T06:54:36;11.30;52.80
9448;DHT22;4762;48.128;11.376;2024-03-29T06:56:38;11.20;51.30
9448;DHT22;4762;48.128;11.376;2024-03-29T07:01:17;13.40;48.20
9448;DHT22;4762;48.128;11.376;2024-03-29T07:03:19;13.70;47.60
9448;DHT22;4762;48.128;11.376;2024-03-29T07:05:22;13.70;47.20
9448;DHT22;4762;48.128;11.376;2024-03-29T07:07:24;13.60;48.00
9448;DHT22;4762;48.128;11.376;2024-03-29T07:09:26;14.10;46.60
9448;DHT22;4762;48.128;11.376;2024-03-29T07:11:29;14.80;44.60
9448;DHT22;4762;48.128;11.376;2024-03-29T07:13:31;14.60;42.30
9448;DHT22;4762;48.128;11.376;2024-03-29T07:15:34;14.10;45.80
9448;DHT22;4762;48.128;11.376;2024-03-29T07:17:36;15.10;47.70
9448;DHT22;4762;48.128;11.376;2024-03-29T07:19:38;15.70;39.10
9448;DHT22;4762;48.128;11.376;2024-03-29T07:21:40;15.60;43.40
9448;DHT22;4762;48.128;11.376;2024-03-29T07:23:42;15.00;44.00
9448;DHT22;4762;48.128;11.376;2024-03-29T07:25:45;15.10;40.70
9448;DHT22;4762;48.128;11.376;2024-03-29T07:27:47;15.10;40.80
9448;DHT22;4762;48.128;11.376;2024-03-29T07:29:49;15.60;39.40
9448;DHT22;4762;48.128;11.376;2024-03-29T07:31:51;15.90;42.20
9448;DHT22;4762;48.128;11.376;2024-03-29T07:33:53;17.00;37.70
9448;DHT22;4762;48.128;11.376;2024-03-29T07:35:56;16.30;38.10
9448;DHT22;4762;48.128;11.376;2024-03-29T07:37:58;15.90;37.60
9448;DHT22;4762;48.128;11.376;2024-03-29T07:40:00;15.70;39.80
9448;DHT22;4762;48.128;11.376;2024-03-29T07:42:02;15.30;38.90
9448;DHT22;4762;48.128;11.376;2024-03-29T07:44:05;15.70;40.80
9448;DHT22;4762;48.128;11.376;2024-03-29T07:46:07;16.60;42.90
9448;DHT22;4762;48.128;11.376;2024-03-29T07:48:12;17.20;36.10
9448;DHT22;4762;48.128;11.376;2024-03-29T07:50:13;17.40;36.90
9448;DHT22;4762;48.128;11.376;2024-03-29T07:52:15;18.80;35.30
9448;DHT22;4762;48.128;11.376;2024-03-29T07:54:18;18.30;35.90
9448;DHT22;4762;48.128;11.376;2024-03-29T07:56:20;18.40;34.70
9448;DHT22;4762;48.128;11.376;2024-03-29T07:58:22;19.10;35.50
9448;DHT22;4762;48.128;11.376;2024-03-29T08:00:25;19.90;31.90
9448;DHT22;4762;48.128;11.376;2024-03-29T08:02:27;19.00;36.00
9448;DHT22;4762;48.128;11.376;2024-03-29T08:04:29;18.30;35.80
9448;DHT22;4762;48.128;11.376;2024-03-29T08:06:32;18.40;34.90
9448;DHT22;4762;48.128;11.376;2024-03-29T08:08:34;18.80;32.80
9448;DHT22;4762;48.128;11.376;2024-03-29T08:10:36;17.70;35.30
9448;DHT22;4762;48.128;11.376;2024-03-29T08:12:38;18.30;35.70
9448;DHT22;4762;48.128;11.376;2024-03-29T08:14:41;18.20;34.60
9448;DHT22;4762;48.128;11.376;2024-03-29T08:16:44;17.10;33.90
9448;DHT22;4762;48.128;11.376;2024-03-29T08:18:46;17.10;34.70
9448;DHT22;4762;48.128;11.376;2024-03-29T08:20:48;17.50;35.30
9448;DHT22;4762;48.128;11.376;2024-03-29T08:22:51;18.30;35.40
9448;DHT22;4762;48.128;11.376;2024-03-29T08:24:53;18.10;35.10
9448;DHT22;4762;48.128;11.376;2024-03-29T08:26:55;17.80;35.60
9448;DHT22;4762;48.128;11.376;2024-03-29T08:28:57;17.70;35.00
9448;DHT22;4762;48.128;11.376;2024-03-29T08:31:02;17.70;34.20
9448;DHT22;4762;48.128;11.376;2024-03-29T08:33:03;17.70;34.30
9448;DHT22;4762;48.128;11.376;2024-03-29T08:35:06;18.50;34.70
9448;DHT22;4762;48.128;11.376;2024-03-29T08:37:09;19.30;33.70
9448;DHT22;4762;48.128;11.376;2024-03-29T08:39:12;19.00;33.30
9448;DHT22;4762;48.128;11.376;2024-03-29T08:41:14;19.20;33.00
9448;DHT22;4762;48.128;11.376;2024-03-29T08:43:16;18.80;34.60
9448;DHT22;4762;48.128;11.376;2024-03-29T08:45:19;19.00;33.30
9448;DHT22;4762;48.128;11.376;2024-03-29T08:47:22;18.80;34.00
9448;DHT22;4762;48.128;11.376;2024-03-29T08:49:24;18.30;34.30
9448;DHT22;4762;48.128;11.376;2024-03-29T08:51:26;17.70;35.10
9448;DHT22;4762;48.128;11.376;2024-03-29T08:53:28;17.40;35.50
9448;DHT22;4762;48.128;11.376;2024-03-29T08:55:32;17.60;37.00
9448;DHT22;4762;48.128;11.376;2024-03-29T08:57:34;17.70;35.40
9448;DHT22;4762;48.128;11.376;2024-03-29T08:59:36;17.50;36.20
9448;DHT22;4762;48.128;11.376;2024-03-29T09:01:44;18.20;36.40
9448;DHT22;4762;48.128;11.376;2024-03-29T09:03:44;18.30;34.50
9448;DHT22;4762;48.128;11.376;2024-03-29T09:05:46;18.60;36.60
9448;DHT22;4762;48.128;11.376;2024-03-29T09:07:49;18.80;35.70
9448;DHT22;4762;48.128;11.376;2024-03-29T09:09:50;18.90;35.80
9448;DHT22;4762;48.128;11.376;2024-03-29T09:11:53;18.90;34.30
9448;DHT22;4762;48.128;11.376;2024-03-29T09:13:55;18.70;35.90
9448;DHT22;4762;48.128;11.376;2024-03-29T09:15:57;18.90;35.00
9448;DHT22;4762;48.128;11.376;2024-03-29T09:17:59;19.70;35.20
9448;DHT22;4762;48.128;11.376;2024-03-29T09:20:01;20.40;34.10
9448;DHT22;4762;48.128;11.376;2024-03-29T09:22:04;20.50;32.20
9448;DHT22;4762;48.128;11.376;2024-03-29T09:24:07;19.70;33.00
9448;DHT22;4762;48.128;11.376;2024-03-29T09:26:09;19.80;35.50
9448;DHT22;4762;48.128;11.376;2024-03-29T09:28:11;20.20;33.00
9448;DHT22;4762;48.128;11.376;2024-03-29T09:30:14;19.40;35.40
9448;DHT22;4762;48.128;11.376;2024-03-29T09:32:16;19.40;35.20
9448;DHT22;4762;48.128;11.376;2024-03-29T09:34:19;19.70;35.20
9448;DHT22;4762;48.128;11.376;2024-03-29T09:36:22;19.60;33.60
9448;DHT22;4762;48.128;11.376;2024-03-29T09:38:25;19.90;33.30
9448;DHT22;4762;48.128;11.376;2024-03-29T09:42:59;20.20;34.60
9448;DHT22;4762;48.128;11.376;2024-03-29T09:45:02;19.90;33.40
9448;DHT22;4762;48.128;11.376;2024-03-29T09:47:04;19.90;35.30
9448;DHT22;4762;48.128;11.376;2024-03-29T09:49:06;20.10;34.60
9448;DHT22;4762;48.128;11.376;2024-03-29T09:51:09;20.00;34.40
9448;DHT22;4762;48.128;11.376;2024-03-29T09:53:11;19.60;34.80
9448;DHT22;4762;48.128;11.376;2024-03-29T09:55:13;19.40;33.60
9448;DHT22;4762;48.128;11.376;2024-03-29T09:57:16;19.40;33.70
9448;DHT22;4762;48.128;11.376;2024-03-29T09:59:18;19.20;33.30
9448;DHT22;4762;48.128;11.376;2024-03-29T10:01:21;19.30;35.70
9448;DHT22;4762;48.128;11.376;2024-03-29T10:03:24;19.60;34.90
9448;DHT22;4762;48.128;11.376;2024-03-29T10:05:27;19.20;34.30
9448;DHT22;4762;48.128;11.376;2024-03-29T10:07:30;19.00;35.20
9448;DHT22;4762;48.128;11.376;2024-03-29T10:09:36;18.80;34.80
9448;DHT22;4762;48.128;11.376;2024-03-29T10:11:39;19.10;35.30
9448;DHT22;4762;48.128;11.376;2024-03-29T10:13:41;19.40;34.90
9448;DHT22;4762;48.128;11.376;2024-03-29T10:15:44;19.40;34.30
9448;DHT22;4762;48.128;11.376;2024-03-29T10:17:47;19.30;35.20
9448;DHT22;4762;48.128;11.376;2024-03-29T10:19:52;19.50;34.80
9448;DHT22;4762;48.128;11.376;2024-03-29T10:22:04;19.90;34.70
9448;DHT22;4762;48.128;11.376;2024-03-29T10:23:57;20.00;34.00
9448;DHT22;4762;48.128;11.376;2024-03-29T10:25:59;20.20;33.30
9448;DHT22;4762;48.128;11.376;2024-03-29T10:28:02;20.60;33.80
9448;DHT22;4762;48.128;11.376;2024-03-29T10:30:09;21.20;33.70
9448;DHT22;4762;48.128;11.376;2024-03-29T10:32:15;20.50;32.80
9448;DHT22;4762;48.128;11.376;2024-03-29T10:34:18;20.20;34.10
9448;DHT22;4762;48.128;11.376;2024-03-29T10:36:20;20.90;32.70
9448;DHT22;4762;48.128;11.376;2024-03-29T10:38:24;21.10;32.90
9448;DHT22;4762;48.128;11.376;2024-03-29T10:40:25;21.00;31.70
9448;DHT22;4762;48.128;11.376;2024-03-29T10:42:28;20.50;31.30
9448;DHT22;4762;48.128;11.376;2024-03-29T10:44:31;20.30;33.40
9448;DHT22;4762;48.128;11.376;2024-03-29T10:46:33;20.60;32.60
9448;DHT22;4762;48.128;11.376;2024-03-29T10:48:36;20.60;32.00
9448;DHT22;4762;48.128;11.376;2024-03-29T10:50:38;21.20;32.90
9448;DHT22;4762;48.128;11.376;2024-03-29T10:52:40;21.00;31.40
9448;DHT22;4762;48.128;11.376;2024-03-29T10:54:44;20.90;32.90
9448;DHT22;4762;48.128;11.376;2024-03-29T10:56:47;20.40;32.60
9448;DHT22;4762;48.128;11.376;2024-03-29T10:58:49;20.50;35.20
9448;DHT22;4762;48.128;11.376;2024-03-29T11:00:57;20.80;33.40
9448;DHT22;4762;48.128;11.376;2024-03-29T11:03:04;20.90;33.10
9448;DHT22;4762;48.128;11.376;2024-03-29T11:05:05;21.00;32.50
9448;DHT22;4762;48.128;11.376;2024-03-29T11:07:09;21.20;32.30
9448;DHT22;4762;48.128;11.376;2024-03-29T11:09:10;21.10;32.60
9448;DHT22;4762;48.128;11.376;2024-03-29T11:11:12;21.20;32.40
9448;DHT22;4762;48.128;11.376;2024-03-29T11:15:28;21.70;32.40
9448;DHT22;4762;48.128;11.376;2024-03-29T11:17:31;22.00;31.80
9448;DHT22;4762;48.128;11.376;2024-03-29T11:19:33;21.40;32.40
9448;DHT22;4762;48.128;11.376;2024-03-29T11:21:36;21.40;31.60
9448;DHT22;4762;48.128;11.376;2024-03-29T11:23:39;21.20;31.50
9448;DHT22;4762;48.128;11.376;2024-03-29T11:25:42;20.60;32.70
9448;DHT22;4762;48.128;11.376;2024-03-29T11:27:43;20.70;33.40
9448;DHT22;4762;48.128;11.376;2024-03-29T11:29:47;20.60;32.70
9448;DHT22;4762;48.128;11.376;2024-03-29T11:31:56;21.30;33.00
9448;DHT22;4762;48.128;11.376;2024-03-29T11:33:58;21.70;31.50
9448;DHT22;4762;48.128;11.376;2024-03-29T11:36:06;21.40;31.40
9448;DHT22;4762;48.128;11.376;2024-03-29T11:38:03;21.70;31.00
9448;DHT22;4762;48.128;11.376;2024-03-29T11:40:10;22.60;30.20
9448;DHT22;4762;48.128;11.376;2024-03-29T11:42:10;22.50;30.00
9448;DHT22;4762;48.128;11.376;2024-03-29T11:44:12;22.50;30.10
9448;DHT22;4762;48.128;11.376;2024-03-29T11:46:15;22.40;30.80
9448;DHT22;4762;48.128;11.376;2024-03-29T11:48:18;22.20;30.20
9448;DHT22;4762;48.128;11.376;2024-03-29T11:50:20;21.80;30.90
9448;DHT22;4762;48.128;11.376;2024-03-29T11:52:25;21.80;31.30
9448;DHT22;4762;48.128;11.376;2024-03-29T11:54:27;23.00;29.90
9448;DHT22;4762;48.128;11.376;2024-03-29T11:56:30;22.90;30.10
9448;DHT22;4762;48.128;11.376;2024-03-29T11:58:33;22.30;30.50
9448;DHT22;4762;48.128;11.376;2024-03-29T12:00:35;21.90;31.40
9448;DHT22;4762;48.128;11.376;2024-03-29T12:02:39;21.80;32.00
9448;DHT22;4762;48.128;11.376;2024-03-29T12:04:41;21.20;32.00
9448;DHT22;4762;48.128;11.376;2024-03-29T12:06:43;21.60;33.50
9448;DHT22;4762;48.128;11.376;2024-03-29T12:08:50;22.30;31.70
9448;DHT22;4762;48.128;11.376;2024-03-29T12:10:52;23.10;30.30
9448;DHT22;4762;48.128;11.376;2024-03-29T12:12:57;24.10;30.00
9448;DHT22;4762;48.128;11.376;2024-03-29T12:14:59;25.50;27.90
9448;DHT22;4762;48.128;11.376;2024-03-29T12:17:01;25.20;28.10
9448;DHT22;4762;48.128;11.376;2024-03-29T12:19:04;25.00;29.70
9448;DHT22;4762;48.128;11.376;2024-03-29T12:21:06;24.60;27.30
9448;DHT22;4762;48.128;11.376;2024-03-29T12:23:08;25.00;29.30
9448;DHT22;4762;48.128;11.376;2024-03-29T12:25:10;24.90;28.00
9448;DHT22;4762;48.128;11.376;2024-03-29T12:27:13;24.90;28.20
9448;DHT22;4762;48.128;11.376;2024-03-29T12:29:15;26.20;25.30
9448;DHT22;4762;48.128;11.376;2024-03-29T12:31:17;26.60;25.90
9448;DHT22;4762;48.128;11.376;2024-03-29T12:33:20;26.00;27.40
9448;DHT22;4762;48.128;11.376;2024-03-29T12:35:22;26.40;26.50
9448;DHT22;4762;48.128;11.376;2024-03-29T12:37:25;25.70;26.10
9448;DHT22;4762;48.128;11.376;2024-03-29T12:39:30;25.30;27.30
9448;DHT22;4762;48.128;11.376;2024-03-29T12:41:31;24.00;27.60
9448;DHT22;4762;48.128;11.376;2024-03-29T12:43:33;24.50;28.10
9448;DHT22;4762;48.128;11.376;2024-03-29T12:45:39;24.50;27.40
9448;DHT22;4762;48.128;11.376;2024-03-29T12:47:46;24.70;27.30
9448;DHT22;4762;48.128;11.376;2024-03-29T12:49:52;25.20;27.40
9448;DHT22;4762;48.128;11.376;2024-03-29T12:51:55;26.00;25.60
9448;DHT22;4762;48.128;11.376;2024-03-29T12:54:00;25.10;27.20
9448;DHT22;4762;48.128;11.376;2024-03-29T12:55:59;24.80;27.50
9448;DHT22;4762;48.128;11.376;2024-03-29T12:58:02;25.40;27.00
9448;DHT22;4762;48.128;11.376;2024-03-29T13:00:05;25.70;26.10
9448;DHT22;4762;48.128;11.376;2024-03-29T13:02:07;25.40;26.20
9448;DHT22;4762;48.128;11.376;2024-03-29T13:04:14;25.30;26.70
9448;DHT22;4762;48.128;11.376;2024-03-29T13:06:17;26.10;25.70
9448;DHT22;4762;48.128;11.376;2024-03-29T13:08:19;26.80;25.90
9448;DHT22;4762;48.128;11.376;2024-03-29T13:10:21;26.80;24.80
9448;DHT22;4762;48.128;11.376;2024-03-29T13:12:55;25.70;25.50
9448;DHT22;4762;48.128;11.376;2024-03-29T13:14:43;24.80;26.00
9448;DHT22;4762;48.128;11.376;2024-03-29T13:16:48;25.90;24.80
9448;DHT22;4762;48.128;11.376;2024-03-29T13:18:51;25.10;26.10
9448;DHT22;4762;48.128;11.376;2024-03-29T13:20:55;25.30;26.00
9448;DHT22;4762;48.128;11.376;2024-03-29T13:23:04;24.70;26.80
9448;DHT22;4762;48.128;11.376;2024-03-29T13:25:07;25.40;25.90
9448;DHT22;4762;48.128;11.376;2024-03-29T13:27:09;26.00;25.70
9448;DHT22;4762;48.128;11.376;2024-03-29T13:29:12;25.30;27.00